Create Tblcommutelog Verified Points Advance Search
| # | Trip ID | Id Commuter | Trip Date | Trip Num | Current Lat | Current Lng | Delta Distance | Current Time | Activity | Activity Confidence | Current Speed | |
|---|---|---|---|---|---|---|---|---|---|---|---|---|
| 70381 | 250425_779784_16652211_1713 | 779784 | (not set) | (not set) | 39.282180605302 | -77.315005917158 | 32.7116 | 2025-04-25 22:14:16.431 | in_vehicle | 100 | 6.2764311961876 | |
| 70382 | 250425_781150_16648823_1756 | 781150 | (not set) | (not set) | 39.010550446316 | -77.363898514478 | 5.3353 | 2025-04-25 22:14:20.424 | in_vehicle | 100 | 5.8830366482785 | |
| 70383 | 250425_774579_16642008_1812 | 774579 | (not set) | (not set) | 38.956696595688 | -76.865061059238 | 0.6636 | 2025-04-25 22:14:21.339 | still | 33 | 5.936681359357 | |
| 70384 | 250425_781890_16649582_1606 | 781890 | (not set) | (not set) | 39.091379146097 | -77.517323958573 | 16.9183 | 2025-04-25 22:14:23.462 | in_vehicle | 100 | 3.6120772126208 | |
| 70385 | 250425_781150_16648823_1756 | 781150 | (not set) | (not set) | 39.011007045976 | -77.363518734007 | 5.3728 | 2025-04-25 22:14:24.24 | in_vehicle | 100 | 7.0408683290567 | |
| 70386 | 250425_780724_16648401_1801 | 780724 | (not set) | (not set) | 38.9049597096 | -77.074117647658 | 1.8209 | 2025-04-25 22:14:28.255 | on_bicycle | 100 | 3.7819521310361 | |
| 70387 | 250425_779784_16652211_1713 | 779784 | (not set) | (not set) | 39.28399823284 | -77.315111114042 | 32.8372 | 2025-04-25 22:14:30.418 | in_vehicle | 100 | 6.9469900846692 | |
| 70388 | 250425_700992_16557105_1700 | 700992 | (not set) | (not set) | 39.18321169311 | -77.252522151376 | 17.9952 | 2025-04-25 22:14:31.271 | in_vehicle | 100 | 8.4624531726376 | |
| 70389 | 250425_774579_16642008_1812 | 774579 | (not set) | (not set) | 38.95892505072 | -76.863674148989 | 0.8345 | 2025-04-25 22:14:35.354 | in_vehicle | 100 | 9.5532289645677 | |
| 70390 | 250425_781150_16648823_1756 | 781150 | (not set) | (not set) | 39.012751774566 | -77.362633185509 | 5.5023 | 2025-04-25 22:14:37.442 | in_vehicle | 100 | 7.7427199656674 | |
| 70391 | 250425_781890_16649582_1606 | 781890 | (not set) | (not set) | 39.090241832879 | -77.518378463501 | 17.0151 | 2025-04-25 22:14:40.244 | in_vehicle | 100 | 6.6877073144564 | |
| 70392 | 250425_779784_16652211_1713 | 779784 | (not set) | (not set) | 39.2857676381 | -77.314190334229 | 32.9688 | 2025-04-25 22:14:43.459 | still | 33 | 7.1302761808542 | |
| 70393 | 250425_774579_16642008_1812 | 774579 | (not set) | (not set) | 38.960758207618 | -76.861714365902 | 0.9992 | 2025-04-25 22:14:44.211 | in_vehicle | 100 | 9.6202848534158 | |
| 70394 | 250425_700992_16557105_1700 | 700992 | (not set) | (not set) | 39.185554276906 | -77.252967466057 | 18.1586 | 2025-04-25 22:14:45.274 | in_vehicle | 100 | 8.1539960839361 | |
| 70395 | 250425_780724_16648401_1801 | 780724 | (not set) | (not set) | 38.905114106882 | -77.07592008184 | 1.9186 | 2025-04-25 22:14:47.438 | on_bicycle | 100 | 3.4332615090257 | |
| 70396 | 250425_781150_16648823_1756 | 781150 | (not set) | (not set) | 39.014621341995 | -77.36237312349 | 5.632 | 2025-04-25 22:14:48.46 | in_vehicle | 100 | 9.0838377426306 | |
| 70397 | 250425_781890_16649582_1606 | 781890 | (not set) | (not set) | 39.088715566427 | -77.519794955761 | 17.145 | 2025-04-25 22:14:52.183 | in_vehicle | 100 | 7.8902429211333 | |
| 70398 | 250425_781117_16648788_1746 | 781117 | (not set) | (not set) | 38.911022276104 | -77.044574662134 | 4.0131 | 2025-04-25 22:14:52.254 | on_foot | 100 | -0.44703925898772 | |
| 70399 | 250425_781117_16648788_1746 | 781117 | (not set) | (not set) | 38.911022276104 | -77.044574662134 | 4.0131 | 2025-04-25 22:14:52.254 | on_foot | 100 | -0.44703925898772 | |
| 70400 | 250425_774579_16642008_1812 | 774579 | (not set) | (not set) | 38.962504639297 | -76.859740333954 | 1.1599 | 2025-04-25 22:14:55.191 | in_vehicle | 100 | 10.492011408442 |